Aérodrome :
LOGIN :

S'inscrire | Disclaimer

   EN    FR    IT 

 










Légende :    VFR   VFR Marginal   IFR   IFR Intensif   IFR Très Intensif
Visi : 
Plafond : 
>= 8 km
>= 3000ft
5 à 8 km
1000 à 3000 ft
1500m à 5 km
500 à 1000 ft
800 à 1500m
200 à 500 ft
< 800m
< 200 ft
Symboles :   Orages  Brouillard  Fortes neiges  Fortes précipitations  Vent > 20 kt
SIGMETs :   Divers  Orages  Givrage  Turbulence  Onde Orograph.  Cendres Volcan.






- Altitude de l'aérodrome : 126 ft
- Code IATA : WIC


EGPC - Wick

DERNIER METAR :
  • 180220Z AUTO 28012KT 9999 FEW048/// 04/00 Q1009

METARs EXPIRÉS :
  • 180150Z AUTO 27010KT 9999 NCD 04/00 Q1008
  • 180120Z AUTO 28010KT 9999 SCT042/// BKN049/// 04/01 Q1008
  • 180050Z AUTO 27011KT 9999 NCD 04/01 Q1007
  • 180020Z AUTO 28013KT 9999 FEW033/// 04/02 Q1007
  • 172350Z AUTO 29012KT 9999 SCT034/// BKN049/// 04/02 Q1006

TAF TAF EGPC
Valide du 18 à 03h jusqu'au 18 à 12h UTC


180154Z 1803/1812 27014KT 9999 FEW030
PROB40
TEMPO 1803/1812 29018G28KT 6000 SHRA BKN014
ATIS : +44 1955 607 596



MET'MAP, la Météo Aéronautique d'un coup d'oeil ! - Copyright ORBIFLY Décembre 2007 - Disclaimer

ORBIFLY MET'MAP TEAM :

Programmation & Développement : Alexandra Zaïnal
Sur une idée originale de : Baudouin d'Aumeries
Assistance à la programmation : Marc-Olivier Méhu
Soutien technique & logistique : Manuel Goepfert

Contact : metmap@orbifly.com




SOURCES & CREDITS :

   NOAA